createdAt,value
2023-05-05T00:01:23.253Z,20.90
2023-05-05T00:06:27.904Z,20.90
2023-05-05T00:11:32.193Z,20.90
2023-05-05T00:16:35.140Z,20.90
2023-05-05T00:21:38.060Z,20.90
2023-05-05T00:26:42.329Z,20.90
2023-05-05T00:31:45.223Z,20.90
2023-05-05T00:36:48.418Z,20.90
2023-05-05T00:41:52.691Z,20.90
2023-05-05T00:46:55.601Z,20.90
2023-05-05T00:51:59.060Z,20.90
2023-05-05T00:57:03.628Z,20.90
2023-05-05T01:02:06.502Z,20.90
2023-05-05T01:07:14.836Z,20.90
2023-05-05T01:12:34.389Z,20.90
2023-05-05T01:17:43.550Z,20.90
2023-05-05T01:22:49.439Z,20.90
2023-05-05T01:28:08.342Z,20.80
2023-05-05T01:33:16.782Z,20.80
2023-05-05T01:38:23.999Z,20.80
2023-05-05T01:43:30.524Z,20.80
2023-05-05T01:48:35.103Z,20.80
2023-05-05T01:53:39.612Z,20.80
2023-05-05T01:58:45.207Z,20.80
2023-05-05T02:03:52.387Z,20.80
2023-05-05T02:08:58.345Z,20.80
2023-05-05T02:14:02.304Z,20.80
2023-05-05T02:19:06.948Z,20.80
2023-05-05T02:24:10.337Z,20.80
2023-05-05T02:29:17.805Z,20.80
2023-05-05T02:34:26.601Z,20.80
2023-05-05T02:39:34.005Z,20.80
2023-05-05T02:44:37.814Z,20.70
2023-05-05T02:49:42.063Z,20.70
2023-05-05T02:54:45.042Z,20.70
2023-05-05T02:59:54.207Z,20.70
2023-05-05T03:05:05.308Z,20.70
2023-05-05T03:10:11.137Z,20.70
2023-05-05T03:15:14.683Z,20.70
2023-05-05T03:20:19.322Z,20.70
2023-05-05T03:25:22.250Z,20.70
2023-05-05T03:30:25.173Z,20.70
2023-05-05T03:35:29.645Z,20.70
2023-05-05T03:40:43.767Z,20.70
2023-05-05T03:45:47.632Z,20.70
2023-05-05T03:50:51.888Z,20.70
2023-05-05T03:55:54.822Z,20.70
2023-05-05T04:00:58.071Z,20.70
2023-05-05T04:06:02.527Z,20.70
2023-05-05T04:11:05.626Z,20.70
2023-05-05T04:16:08.970Z,20.70
2023-05-05T04:21:13.298Z,20.60
2023-05-05T04:26:16.325Z,20.70
2023-05-05T04:31:19.368Z,20.70
2023-05-05T04:36:23.654Z,20.70
2023-05-05T04:41:27.703Z,20.70
2023-05-05T04:46:34.760Z,20.70
2023-05-05T04:51:42.275Z,20.90
2023-05-05T04:56:45.233Z,20.90
2023-05-05T05:01:48.199Z,21.00
2023-05-05T05:06:52.709Z,21.00
2023-05-05T05:11:56.303Z,21.00
2023-05-05T05:16:59.176Z,21.00
2023-05-05T05:22:03.537Z,21.00
2023-05-05T05:27:09.797Z,21.10
2023-05-05T05:32:13.177Z,21.20
2023-05-05T05:37:17.473Z,21.20
2023-05-05T05:42:20.381Z,21.30
2023-05-05T05:47:23.844Z,21.20
2023-05-05T05:52:28.143Z,21.20
2023-05-05T05:57:31.110Z,21.20
2023-05-05T06:02:34.119Z,21.20
2023-05-05T06:07:38.495Z,21.20
2023-05-05T06:12:41.473Z,21.20
2023-05-05T06:17:44.434Z,21.30
2023-05-05T06:22:48.703Z,21.30
2023-05-05T06:27:51.806Z,21.20
2023-05-05T06:32:54.943Z,21.20
2023-05-05T06:37:59.237Z,21.30
2023-05-05T06:43:02.199Z,21.20
2023-05-05T06:48:05.373Z,21.20
2023-05-05T06:53:09.694Z,21.20
2023-05-05T06:58:13.144Z,21.20
2023-05-05T07:03:16.144Z,21.20
2023-05-05T07:08:20.491Z,21.10
2023-05-05T07:13:23.441Z,21.10
2023-05-05T07:18:26.453Z,21.10
2023-05-05T07:23:30.713Z,21.10
2023-05-05T07:28:33.593Z,21.10
2023-05-05T07:33:36.545Z,21.10
2023-05-05T07:38:40.881Z,21.10
2023-05-05T07:43:44.694Z,21.10
2023-05-05T07:48:47.688Z,21.10
2023-05-05T07:53:51.977Z,21.10
2023-05-05T07:58:54.921Z,21.10
2023-05-05T08:03:57.836Z,21.10
2023-05-05T08:09:02.609Z,21.10
2023-05-05T08:14:05.523Z,21.10
2023-05-05T08:19:17.848Z,21.10
2023-05-05T08:24:32.309Z,21.20
2023-05-05T08:29:35.208Z,21.30
2023-05-05T08:34:38.085Z,21.40
2023-05-05T08:39:42.367Z,21.40
2023-05-05T08:44:45.253Z,21.50
2023-05-05T08:49:48.709Z,21.60
2023-05-05T08:55:03.584Z,21.70
2023-05-05T09:00:09.825Z,21.70
2023-05-05T09:05:13.157Z,21.80
2023-05-05T09:10:17.658Z,21.80
2023-05-05T09:15:20.554Z,21.90
2023-05-05T09:20:24.259Z,22.00
2023-05-05T09:25:28.660Z,22.00
2023-05-05T09:30:41.160Z,22.00
2023-05-05T09:35:51.453Z,22.10
2023-05-05T09:40:55.081Z,22.10
2023-05-05T09:46:08.549Z,22.20
2023-05-05T09:51:11.495Z,22.20
2023-05-05T09:56:14.342Z,22.20
2023-05-05T10:01:24.519Z,22.20
2023-05-05T10:06:41.170Z,22.30
2023-05-05T10:11:46.111Z,22.30
2023-05-05T10:16:52.664Z,22.30
2023-05-05T10:22:03.817Z,22.30
2023-05-05T10:27:13.150Z,22.30
2023-05-05T10:32:51.184Z,22.30
2023-05-05T10:37:46.405Z,22.30
2023-05-05T10:42:50.012Z,22.30
2023-05-05T10:47:57.124Z,22.30
2023-05-05T10:53:12.174Z,22.30
2023-05-05T10:58:38.543Z,22.30
2023-05-05T11:03:49.529Z,22.30
2023-05-05T11:08:52.474Z,22.30
2023-05-05T11:14:22.304Z,22.30
2023-05-05T11:19:48.589Z,22.30
2023-05-05T11:24:51.499Z,22.40
2023-05-05T11:30:09.276Z,22.50
2023-05-05T11:35:14.272Z,22.50
2023-05-05T11:40:24.790Z,22.60
2023-05-05T11:45:27.701Z,22.60
2023-05-05T11:50:33.992Z,22.60
2023-05-05T11:55:36.818Z,22.60
2023-05-05T12:00:39.841Z,22.60
2023-05-05T12:05:44.043Z,22.50
2023-05-05T12:10:46.920Z,22.60
2023-05-05T12:15:50.144Z,22.60
2023-05-05T12:20:54.354Z,22.60
2023-05-05T12:25:57.408Z,22.60
2023-05-05T12:31:00.444Z,22.60
2023-05-05T12:36:05.098Z,22.60
2023-05-05T12:41:08.823Z,22.60
2023-05-05T12:46:13.368Z,22.70
2023-05-05T12:51:19.870Z,22.60
2023-05-05T12:56:34.177Z,22.70
2023-05-05T13:01:37.987Z,22.60
2023-05-05T13:06:44.023Z,22.70
2023-05-05T13:11:46.844Z,22.70
2023-05-05T13:16:49.923Z,22.60
2023-05-05T13:21:54.433Z,22.70
2023-05-05T13:26:57.586Z,22.60
2023-05-05T13:32:00.825Z,22.60
2023-05-05T13:37:05.010Z,22.70
2023-05-05T13:42:08.011Z,22.60
2023-05-05T13:47:10.879Z,22.70
2023-05-05T13:52:15.180Z,22.70
2023-05-05T13:57:18.109Z,22.70
2023-05-05T14:02:20.917Z,22.70
2023-05-05T14:07:25.115Z,22.70
2023-05-05T14:12:28.257Z,22.70
2023-05-05T14:17:31.102Z,22.70
2023-05-05T14:22:35.289Z,22.70
2023-05-05T14:27:38.150Z,22.70
2023-05-05T14:32:41.021Z,22.60
2023-05-05T14:37:45.218Z,22.70
2023-05-05T14:42:49.129Z,22.70
2023-05-05T14:47:52.052Z,22.70
2023-05-05T14:52:56.296Z,22.70
2023-05-05T14:57:59.147Z,22.60
2023-05-05T15:03:02.075Z,22.60
2023-05-05T15:08:06.791Z,22.60
2023-05-05T15:13:09.859Z,22.60
2023-05-05T15:18:13.053Z,22.60
2023-05-05T15:23:17.265Z,22.60
2023-05-05T15:28:20.125Z,22.60
2023-05-05T15:33:22.933Z,22.60
2023-05-05T15:38:29.009Z,22.50
2023-05-05T15:43:31.843Z,22.50
2023-05-05T15:48:35.632Z,22.50
2023-05-05T15:53:39.816Z,22.50
2023-05-05T15:58:42.656Z,22.50
2023-05-05T16:03:45.604Z,22.50
2023-05-05T16:08:51.729Z,22.50
2023-05-05T16:13:54.804Z,22.40
2023-05-05T16:18:57.708Z,22.40
2023-05-05T16:24:01.869Z,22.40
2023-05-05T16:29:04.729Z,22.40
2023-05-05T16:34:07.661Z,22.40
2023-05-05T16:39:11.930Z,22.30
2023-05-05T16:44:15.704Z,22.30
2023-05-05T16:49:18.541Z,22.30
2023-05-05T16:54:22.760Z,22.30
2023-05-05T16:59:25.771Z,22.20
2023-05-05T17:04:28.653Z,22.20
2023-05-05T17:09:32.816Z,22.20
2023-05-05T17:14:35.650Z,22.20
2023-05-05T17:19:38.492Z,22.20
2023-05-05T17:24:43.048Z,22.20
2023-05-05T17:29:45.901Z,22.10
2023-05-05T17:34:49.145Z,22.10
2023-05-05T17:39:53.303Z,22.10
2023-05-05T17:44:56.133Z,22.10
2023-05-05T17:49:59.424Z,22.10
2023-05-05T17:55:03.594Z,22.10
2023-05-05T18:00:07.710Z,22.10
2023-05-05T18:05:11.351Z,22.00
2023-05-05T18:10:16.630Z,22.00
2023-05-05T18:15:19.497Z,22.00
2023-05-05T18:20:22.334Z,22.00
2023-05-05T18:25:26.702Z,22.00
2023-05-05T18:30:29.617Z,22.00
2023-05-05T18:35:32.886Z,22.00
2023-05-05T18:40:37.054Z,22.00
2023-05-05T18:45:40.010Z,22.00
2023-05-05T18:50:42.930Z,21.90
2023-05-05T18:55:47.743Z,21.90
2023-05-05T19:00:51.046Z,21.90
2023-05-05T19:05:54.159Z,21.90
2023-05-05T19:10:58.380Z,21.90
2023-05-05T19:16:01.347Z,21.90
2023-05-05T19:21:04.363Z,21.80
2023-05-05T19:26:08.549Z,21.90
2023-05-05T19:31:11.388Z,21.80
2023-05-05T19:36:14.193Z,21.80
2023-05-05T19:41:18.417Z,21.80
2023-05-05T19:46:21.369Z,21.80
2023-05-05T19:51:24.236Z,21.80
2023-05-05T19:56:28.477Z,21.80
2023-05-05T20:01:31.459Z,21.80
2023-05-05T20:06:35.753Z,21.80
2023-05-05T20:11:39.954Z,21.80
2023-05-05T20:16:42.764Z,21.80
2023-05-05T20:21:45.745Z,21.80
2023-05-05T20:26:50.325Z,21.80
2023-05-05T20:31:53.163Z,21.80
2023-05-05T20:36:56.561Z,21.80
2023-05-05T20:42:01.198Z,21.70
2023-05-05T20:47:04.044Z,21.70
2023-05-05T20:52:06.913Z,21.70
2023-05-05T20:57:11.477Z,21.70
2023-05-05T21:02:14.384Z,21.70
2023-05-05T21:07:17.212Z,21.70
2023-05-05T21:12:21.364Z,21.70
2023-05-05T21:17:24.227Z,21.70
2023-05-05T21:22:27.066Z,21.70
2023-05-05T21:27:31.854Z,21.70
2023-05-05T21:32:34.862Z,21.70
2023-05-05T21:37:38.419Z,21.70
2023-05-05T21:42:43.350Z,21.70
2023-05-05T21:47:46.300Z,21.70
2023-05-05T21:52:49.150Z,21.70
2023-05-05T21:57:53.313Z,21.70
2023-05-05T22:02:56.247Z,21.70
2023-05-05T22:07:59.132Z,21.70
2023-05-05T22:13:03.371Z,21.70
2023-05-05T22:18:06.596Z,21.70
2023-05-05T22:23:09.509Z,21.70
2023-05-05T22:28:13.838Z,21.70
2023-05-05T22:33:17.004Z,21.70
2023-05-05T22:38:19.831Z,21.60
2023-05-05T22:43:24.019Z,21.60
2023-05-05T22:48:26.859Z,21.60
2023-05-05T22:53:29.709Z,21.60
2023-05-05T22:58:33.869Z,21.60
2023-05-05T23:03:36.708Z,21.60
2023-05-05T23:08:39.575Z,21.60
2023-05-05T23:13:43.763Z,21.60
2023-05-05T23:18:46.604Z,21.60
2023-05-05T23:23:49.488Z,21.60
2023-05-05T23:28:53.679Z,21.60
2023-05-05T23:33:56.513Z,21.60
2023-05-05T23:38:59.351Z,21.60
2023-05-05T23:44:03.554Z,21.60
2023-05-05T23:49:06.463Z,21.60
2023-05-05T23:54:09.339Z,21.60
2023-05-05T23:59:13.476Z,21.60
